createdAt,value
2018-12-24T00:02:13.328Z,82.99
2018-12-24T00:04:42.633Z,82.91
2018-12-24T00:07:13.099Z,82.93
2018-12-24T00:09:42.359Z,82.77
2018-12-24T00:12:11.677Z,82.68
2018-12-24T00:14:40.930Z,82.39
2018-12-24T00:17:10.189Z,82.12
2018-12-24T00:19:39.559Z,82.20
2018-12-24T00:22:08.847Z,81.99
2018-12-24T00:24:38.114Z,82.26
2018-12-24T00:27:07.357Z,82.45
2018-12-24T00:29:36.623Z,82.49
2018-12-24T00:32:05.874Z,82.74
2018-12-24T00:34:35.145Z,82.59
2018-12-24T00:37:04.779Z,82.62
2018-12-24T00:39:34.078Z,82.80
2018-12-24T00:42:03.330Z,82.99
2018-12-24T00:44:32.611Z,82.92
2018-12-24T00:47:02.200Z,83.08
2018-12-24T00:49:31.464Z,83.06
2018-12-24T00:52:00.807Z,82.90
2018-12-24T00:54:30.059Z,82.96
2018-12-24T00:56:59.335Z,81.00
2018-12-24T00:59:28.592Z,80.68
2018-12-24T01:01:57.871Z,81.34
2018-12-24T01:04:27.118Z,80.99
2018-12-24T01:06:56.515Z,81.49
2018-12-24T01:09:25.773Z,81.90
2018-12-24T01:11:55.149Z,81.83
2018-12-24T01:14:24.528Z,80.45
2018-12-24T01:16:54.130Z,79.22
2018-12-24T01:19:24.605Z,80.33
2018-12-24T01:21:53.891Z,80.07
2018-12-24T01:24:23.365Z,80.14
2018-12-24T01:26:52.645Z,80.05
2018-12-24T01:29:21.933Z,80.76
2018-12-24T01:31:51.201Z,80.23
2018-12-24T01:34:20.439Z,80.64
2018-12-24T01:36:49.716Z,80.82
2018-12-24T01:39:19.299Z,79.92
2018-12-24T01:41:48.571Z,80.49
2018-12-24T01:44:17.854Z,79.79
2018-12-24T01:46:47.115Z,80.72
2018-12-24T01:49:16.382Z,81.02
2018-12-24T01:51:45.658Z,81.81
2018-12-24T01:54:14.998Z,81.42
2018-12-24T01:56:44.347Z,81.28
2018-12-24T01:59:13.617Z,80.23
2018-12-24T02:01:42.877Z,79.86
2018-12-24T02:04:12.140Z,81.18
2018-12-24T02:06:41.407Z,80.92
2018-12-24T02:09:10.689Z,80.61
2018-12-24T02:11:40.039Z,80.51
2018-12-24T02:14:09.269Z,80.74
2018-12-24T02:16:38.534Z,80.48
2018-12-24T02:19:07.780Z,80.77
2018-12-24T02:21:37.243Z,80.95
2018-12-24T02:24:06.477Z,80.44
2018-12-24T02:26:35.754Z,81.18
2018-12-24T02:29:05.014Z,81.09
2018-12-24T02:31:34.531Z,80.64
2018-12-24T02:34:03.833Z,80.19
2018-12-24T02:36:33.097Z,80.57
2018-12-24T02:39:02.634Z,80.40
2018-12-24T02:41:31.905Z,80.20
2018-12-24T02:44:01.226Z,80.80
2018-12-24T02:46:30.483Z,80.38
2018-12-24T02:49:00.190Z,79.57
2018-12-24T02:51:29.532Z,79.33
2018-12-24T02:53:58.783Z,79.74
2018-12-24T02:56:29.177Z,79.30
2018-12-24T02:58:58.421Z,79.51
2018-12-24T03:01:27.693Z,80.01
2018-12-24T03:03:56.950Z,78.80
2018-12-24T03:06:26.233Z,78.81
2018-12-24T03:08:55.819Z,78.79
2018-12-24T03:11:25.987Z,78.98
2018-12-24T03:13:55.311Z,77.83
2018-12-24T03:16:24.569Z,77.33
2018-12-24T03:18:53.832Z,77.69
2018-12-24T03:21:23.139Z,78.61
2018-12-24T03:23:52.446Z,79.07
2018-12-24T03:26:21.728Z,80.07
2018-12-24T03:28:51.302Z,80.25
2018-12-24T03:31:20.629Z,79.95
2018-12-24T03:33:49.869Z,79.83
2018-12-24T03:36:20.915Z,80.19
2018-12-24T03:38:51.267Z,80.15
2018-12-24T03:41:20.934Z,79.71
2018-12-24T03:43:50.213Z,79.65
2018-12-24T03:46:19.486Z,80.12
2018-12-24T03:48:48.789Z,79.47
2018-12-24T03:51:18.058Z,79.18
2018-12-24T03:53:47.317Z,79.24
2018-12-24T03:56:19.402Z,79.24
2018-12-24T03:58:48.663Z,79.14
2018-12-24T04:01:17.925Z,79.07
2018-12-24T04:03:47.200Z,78.91
2018-12-24T04:06:16.455Z,78.59
2018-12-24T04:08:45.730Z,79.47
2018-12-24T04:11:14.975Z,78.16
2018-12-24T04:13:44.254Z,78.81
2018-12-24T04:16:13.498Z,78.06
2018-12-24T04:18:42.766Z,78.44
2018-12-24T04:21:12.006Z,79.16
2018-12-24T04:23:41.313Z,79.26
2018-12-24T04:26:10.554Z,79.36
2018-12-24T04:28:39.897Z,79.57
2018-12-24T04:31:09.184Z,80.02
2018-12-24T04:33:38.759Z,79.69
2018-12-24T04:36:08.042Z,80.28
2018-12-24T04:38:39.744Z,79.01
2018-12-24T04:41:09.315Z,78.87
2018-12-24T04:43:38.584Z,78.74
2018-12-24T04:46:07.849Z,79.04
2018-12-24T04:48:37.098Z,78.57
2018-12-24T04:51:06.560Z,78.63
2018-12-24T04:53:35.811Z,78.60
2018-12-24T04:56:05.152Z,78.53
2018-12-24T04:58:35.318Z,78.64
2018-12-24T05:01:04.575Z,78.34
2018-12-24T05:03:33.847Z,78.77
2018-12-24T05:06:03.084Z,79.06
2018-12-24T05:08:32.362Z,79.08
2018-12-24T05:11:01.611Z,79.47
2018-12-24T05:13:30.867Z,79.74
2018-12-24T05:16:00.136Z,79.64
2018-12-24T05:18:31.610Z,80.23
2018-12-24T05:21:00.894Z,79.90
2018-12-24T05:23:30.394Z,79.43
2018-12-24T05:25:59.658Z,78.51
2018-12-24T05:28:28.922Z,78.84
2018-12-24T05:30:58.170Z,78.36
2018-12-24T05:33:27.443Z,78.45
2018-12-24T05:35:56.680Z,79.00
2018-12-24T05:38:25.988Z,79.04
2018-12-24T05:40:55.234Z,77.69
2018-12-24T05:43:24.482Z,77.68
2018-12-24T05:45:53.753Z,77.88
2018-12-24T05:48:23.014Z,78.40
2018-12-24T05:50:52.275Z,77.45
2018-12-24T05:53:21.521Z,77.04
2018-12-24T05:55:50.784Z,77.43
2018-12-24T05:58:20.029Z,77.83
2018-12-24T06:00:53.181Z,77.89
2018-12-24T06:03:23.591Z,77.17
2018-12-24T06:05:54.031Z,77.61
2018-12-24T06:08:27.164Z,77.08
2018-12-24T06:10:57.146Z,76.83
2018-12-24T06:13:29.549Z,76.19
2018-12-24T06:16:00.100Z,76.52
2018-12-24T06:18:30.850Z,76.41
2018-12-24T06:21:00.157Z,76.43
2018-12-24T06:23:33.109Z,76.79
2018-12-24T06:26:04.039Z,76.50
2018-12-24T06:28:33.313Z,76.34
2018-12-24T06:31:03.118Z,76.33
2018-12-24T06:33:32.429Z,76.99
2018-12-24T06:36:02.151Z,76.36
2018-12-24T06:38:31.399Z,76.29
2018-12-24T06:41:00.644Z,76.17
2018-12-24T06:43:29.922Z,76.93
2018-12-24T06:45:59.161Z,76.09
2018-12-24T06:48:28.449Z,75.52
2018-12-24T06:50:57.693Z,76.05
2018-12-24T06:53:26.947Z,74.90
2018-12-24T06:55:56.220Z,75.61
2018-12-24T06:58:25.460Z,74.99
2018-12-24T07:00:54.753Z,75.02
2018-12-24T07:03:24.018Z,74.88
2018-12-24T07:05:53.289Z,74.34
2018-12-24T07:08:23.050Z,74.31
2018-12-24T07:10:52.309Z,74.80
2018-12-24T07:13:21.591Z,74.57
2018-12-24T07:15:50.849Z,74.66
2018-12-24T07:18:20.114Z,75.03
2018-12-24T07:20:49.348Z,74.61
2018-12-24T07:23:18.599Z,75.04
2018-12-24T07:25:47.885Z,74.64
2018-12-24T07:28:17.136Z,74.59
2018-12-24T07:30:46.427Z,75.10
2018-12-24T07:33:17.013Z,74.71
2018-12-24T07:35:46.505Z,74.49
2018-12-24T07:38:16.187Z,74.37
2018-12-24T07:40:45.468Z,74.64
2018-12-24T07:43:14.733Z,74.61
2018-12-24T07:45:43.978Z,74.21
2018-12-24T07:48:13.648Z,74.69
2018-12-24T07:50:42.903Z,73.98
2018-12-24T07:53:12.464Z,74.13
2018-12-24T07:55:41.752Z,73.69
2018-12-24T07:58:11.007Z,73.79
2018-12-24T08:00:40.287Z,73.79
2018-12-24T08:03:09.829Z,73.85
2018-12-24T08:05:39.112Z,74.19
2018-12-24T08:08:09.501Z,73.69
2018-12-24T08:10:38.799Z,73.61
2018-12-24T08:13:08.074Z,73.50
2018-12-24T08:15:37.312Z,73.94
2018-12-24T08:18:06.781Z,73.04
2018-12-24T08:20:36.033Z,73.19
2018-12-24T08:23:05.426Z,73.49
2018-12-24T08:25:34.683Z,73.35
2018-12-24T08:28:03.965Z,73.39
2018-12-24T08:30:33.238Z,72.86
2018-12-24T08:33:02.746Z,73.11
2018-12-24T08:35:32.290Z,73.23
2018-12-24T08:38:01.891Z,72.52
2018-12-24T08:40:31.292Z,72.55
2018-12-24T08:43:00.573Z,73.01
2018-12-24T08:45:29.813Z,72.49
2018-12-24T08:47:59.097Z,73.05
2018-12-24T08:50:28.344Z,72.94
2018-12-24T08:52:57.614Z,72.74
2018-12-24T08:55:27.308Z,72.70
2018-12-24T08:57:57.232Z,72.94
2018-12-24T09:00:26.535Z,73.17
2018-12-24T09:02:57.810Z,72.24
2018-12-24T09:05:27.113Z,72.24
2018-12-24T09:07:56.360Z,72.72
2018-12-24T09:10:25.628Z,72.84
2018-12-24T09:12:54.867Z,72.42
2018-12-24T09:15:24.179Z,71.81
2018-12-24T09:17:53.422Z,71.93
2018-12-24T09:20:22.808Z,71.61
2018-12-24T09:22:52.087Z,71.54
2018-12-24T09:25:21.379Z,71.43
2018-12-24T09:27:50.842Z,72.44
2018-12-24T09:30:21.381Z,71.81
2018-12-24T09:32:51.017Z,71.36
2018-12-24T09:35:20.417Z,71.33
2018-12-24T09:37:49.702Z,71.34
2018-12-24T09:40:19.275Z,71.08
2018-12-24T09:42:48.592Z,70.71
2018-12-24T09:45:17.865Z,71.15
2018-12-24T09:47:48.926Z,71.14
2018-12-24T09:50:18.214Z,71.29
2018-12-24T09:52:47.574Z,71.32
2018-12-24T09:55:16.877Z,71.57
2018-12-24T09:57:46.154Z,71.17
2018-12-24T10:00:17.373Z,70.49
2018-12-24T10:02:54.530Z,70.63
2018-12-24T10:05:25.633Z,70.59
2018-12-24T10:07:54.913Z,70.40
2018-12-24T10:10:24.371Z,71.16
2018-12-24T10:12:53.690Z,70.14
2018-12-24T10:15:22.950Z,70.44
2018-12-24T10:17:52.193Z,70.41
2018-12-24T10:20:21.469Z,69.41
